Klodzko, Poland
Current Conditions -  °F | °C
As of 4:00 PM on Thursday 29 Jan 2015 (Local Time) from EPWR Reporting Station
Few Clouds Few Clouds  
Wind Chill: 33°   Ceiling: Unl
Heat Index: 41°   Visibility: 6mi
Dew Point: 23°   Wind: 15mph
Humidity: 49%   Direction: 250°WSW
Pressure: 29.29"   Gusts: 26mph
Location:  50.44°N, 16.66°E
Report Text: EPWR 291400Z 25013G23KT 220V280 9999 FEW040 05/M05 Q0992
Loading
Personal Weather Stations






























Interactive Weather Map New forecast layout! Learn more

10-Day Weather Forecast

Advertisements
Track Severe Weather on mobile